Gumtree, North Carolina
Current Conditions -  °F | °C
As of 11:24 AM on Wednesday 26 Nov 2014 (Local Time) from KINT Reporting Station
Light Rain Light Rain  
Wind Chill: 33°   Ceiling: 1200
Heat Index: 41°   Visibility: 9mi
Dew Point: 37°   Wind: 16mph
Humidity: 86%   Direction: 330°NNW
Pressure: 30"   Gusts: 22mph
Location:  36.0182°N, 80.183°W
Report Text: KINT 261624Z 33014G19KT 9SM -RA FEW006 BKN012 OVC018 05/03 A3000 RMK AO2 P0003 T00500028
Loading
Personal Weather Stations






























Interactive Weather Map New forecast layout! Learn more

10-Day Weather Forecast

Advertisements
Track Severe Weather on mobile